sensor_id;sensor_type;location;lat;lon;timestamp;pressure;altitude;pressure_sealevel;temperature;humidity
69455;BME280;56660;51.986;5.930;2022-07-29T00:02:04;101722.88;;;19.15;48.13
69455;BME280;56660;51.986;5.930;2022-07-29T00:04:34;101710.34;;;19.14;48.26
69455;BME280;56660;51.986;5.930;2022-07-29T00:07:03;101719.50;;;19.13;48.38
69455;BME280;56660;51.986;5.930;2022-07-29T00:09:31;101704.25;;;19.12;48.19
69455;BME280;56660;51.986;5.930;2022-07-29T00:12:00;101711.72;;;19.10;48.12
69455;BME280;56660;51.986;5.930;2022-07-29T00:17:48;101708.41;;;19.00;48.72
69455;BME280;56660;51.986;5.930;2022-07-29T00:20:59;101700.63;;;18.97;48.58
69455;BME280;56660;51.986;5.930;2022-07-29T00:23:28;101706.25;;;18.95;48.85
69455;BME280;56660;51.986;5.930;2022-07-29T00:26:18;101704.91;;;18.91;48.74
69455;BME280;56660;51.986;5.930;2022-07-29T00:29:21;101695.44;;;18.87;49.56
69455;BME280;56660;51.986;5.930;2022-07-29T00:32:09;101689.38;;;18.85;49.83
69455;BME280;56660;51.986;5.930;2022-07-29T00:34:39;101676.84;;;18.84;49.15
69455;BME280;56660;51.986;5.930;2022-07-29T00:37:07;101683.75;;;18.86;49.39
69455;BME280;56660;51.986;5.930;2022-07-29T00:39:49;101690.88;;;18.87;49.12
69455;BME280;56660;51.986;5.930;2022-07-29T00:42:21;101675.81;;;18.85;49.02
69455;BME280;56660;51.986;5.930;2022-07-29T00:45:10;101689.06;;;18.80;50.07
69455;BME280;56660;51.986;5.930;2022-07-29T00:48:06;101677.06;;;18.74;49.62
69455;BME280;56660;51.986;5.930;2022-07-29T00:50:52;101677.06;;;18.74;49.75
69455;BME280;56660;51.986;5.930;2022-07-29T00:53:29;101673.34;;;18.75;49.91
69455;BME280;56660;51.986;5.930;2022-07-29T00:56:02;101670.31;;;18.70;50.23
69455;BME280;56660;51.986;5.930;2022-07-29T00:58:31;101663.22;;;18.69;49.86
69455;BME280;56660;51.986;5.930;2022-07-29T01:01:12;101662.53;;;18.67;50.17
69455;BME280;56660;51.986;5.930;2022-07-29T01:03:41;101664.06;;;18.70;49.95
69455;BME280;56660;51.986;5.930;2022-07-29T01:06:11;101664.91;;;18.70;50.05
69455;BME280;56660;51.986;5.930;2022-07-29T01:08:37;101663.03;;;18.71;50.00
69455;BME280;56660;51.986;5.930;2022-07-29T01:11:07;101666.94;;;18.68;49.89
69455;BME280;56660;51.986;5.930;2022-07-29T01:13:44;101665.91;;;18.69;50.12
69455;BME280;56660;51.986;5.930;2022-07-29T01:16:18;101661.03;;;18.65;50.23
69455;BME280;56660;51.986;5.930;2022-07-29T01:18:57;101677.28;;;18.65;50.54
69455;BME280;56660;51.986;5.930;2022-07-29T01:21:51;101665.09;;;18.60;50.94
69455;BME280;56660;51.986;5.930;2022-07-29T01:24:47;101660.19;;;18.64;50.84
69455;BME280;56660;51.986;5.930;2022-07-29T01:27:51;101658.50;;;18.63;50.76
69455;BME280;56660;51.986;5.930;2022-07-29T01:30:35;101659.19;;;18.57;51.09
69455;BME280;56660;51.986;5.930;2022-07-29T01:33:10;101654.13;;;18.54;50.87
69455;BME280;56660;51.986;5.930;2022-07-29T01:35:42;101651.41;;;18.54;50.64
69455;BME280;56660;51.986;5.930;2022-07-29T01:38:16;101656.16;;;18.52;50.58
69455;BME280;56660;51.986;5.930;2022-07-29T01:40:58;101662.59;;;18.51;51.10
69455;BME280;56660;51.986;5.930;2022-07-29T01:43:57;101656.84;;;18.54;50.79
69455;BME280;56660;51.986;5.930;2022-07-29T01:46:33;101652.44;;;18.53;50.90
69455;BME280;56660;51.986;5.930;2022-07-29T01:49:26;101667.50;;;18.55;50.65
69455;BME280;56660;51.986;5.930;2022-07-29T01:52:03;101668.69;;;18.53;50.54
69455;BME280;56660;51.986;5.930;2022-07-29T01:54:39;101670.06;;;18.49;51.29
69455;BME280;56660;51.986;5.930;2022-07-29T01:57:16;101666.34;;;18.50;50.96
69455;BME280;56660;51.986;5.930;2022-07-29T01:59:50;101670.72;;;18.51;50.87
69455;BME280;56660;51.986;5.930;2022-07-29T02:02:35;101670.38;;;18.54;50.85
69455;BME280;56660;51.986;5.930;2022-07-29T02:05:08;101673.75;;;18.56;50.78
69455;BME280;56660;51.986;5.930;2022-07-29T02:07:40;101674.59;;;18.56;50.91
69455;BME280;56660;51.986;5.930;2022-07-29T02:10:15;101672.06;;;18.55;50.68
69455;BME280;56660;51.986;5.930;2022-07-29T02:12:50;101678.16;;;18.57;50.82
69455;BME280;56660;51.986;5.930;2022-07-29T02:15:34;101690.84;;;18.56;50.51
69455;BME280;56660;51.986;5.930;2022-07-29T02:18:16;101698.97;;;18.56;51.02
69455;BME280;56660;51.986;5.930;2022-07-29T02:21:19;101700.47;;;18.59;51.56
69455;BME280;56660;51.986;5.930;2022-07-29T02:24:11;101698.31;;;18.54;51.29
69455;BME280;56660;51.986;5.930;2022-07-29T02:26:51;101701.53;;;18.50;51.68
69455;BME280;56660;51.986;5.930;2022-07-29T02:29:22;101713.22;;;18.50;51.76
69455;BME280;56660;51.986;5.930;2022-07-29T02:31:55;101693.09;;;18.45;51.39
69455;BME280;56660;51.986;5.930;2022-07-29T02:34:28;101707.00;;;18.42;51.51
69455;BME280;56660;51.986;5.930;2022-07-29T02:37:03;101694.81;;;18.38;51.86
69455;BME280;56660;51.986;5.930;2022-07-29T02:39:45;101686.22;;;18.34;51.66
69455;BME280;56660;51.986;5.930;2022-07-29T02:42:29;101693.47;;;18.34;51.89
69455;BME280;56660;51.986;5.930;2022-07-29T02:44:59;101687.03;;;18.35;52.09
69455;BME280;56660;51.986;5.930;2022-07-29T02:47:31;101696.19;;;18.34;52.05
69455;BME280;56660;51.986;5.930;2022-07-29T02:50:30;101693.66;;;18.32;52.19
69455;BME280;56660;51.986;5.930;2022-07-29T02:53:09;101685.41;;;18.25;52.22
69455;BME280;56660;51.986;5.930;2022-07-29T02:55:46;101685.06;;;18.20;52.40
69455;BME280;56660;51.986;5.930;2022-07-29T02:58:27;101681.50;;;18.20;52.57
69455;BME280;56660;51.986;5.930;2022-07-29T03:01:06;101679.66;;;18.20;52.66
69455;BME280;56660;51.986;5.930;2022-07-29T03:03:38;101673.38;;;18.20;52.70
69455;BME280;56660;51.986;5.930;2022-07-29T03:06:49;101671.84;;;18.17;53.12
69455;BME280;56660;51.986;5.930;2022-07-29T03:09:18;101671.72;;;18.11;52.89
69455;BME280;56660;51.986;5.930;2022-07-29T03:11:45;101668.34;;;18.09;53.03
69455;BME280;56660;51.986;5.930;2022-07-29T03:14:13;101658.88;;;18.05;53.48
69455;BME280;56660;51.986;5.930;2022-07-29T03:19:29;101653.97;;;18.00;54.21
69455;BME280;56660;51.986;5.930;2022-07-29T03:22:00;101649.28;;;17.86;54.49
69455;BME280;56660;51.986;5.930;2022-07-29T03:24:34;101639.34;;;17.70;55.17
69455;BME280;56660;51.986;5.930;2022-07-29T03:27:17;101629.88;;;17.58;55.51
69455;BME280;56660;51.986;5.930;2022-07-29T03:29:50;101626.16;;;17.51;56.14
69455;BME280;56660;51.986;5.930;2022-07-29T03:32:24;101625.34;;;17.42;56.62
69455;BME280;56660;51.986;5.930;2022-07-29T03:34:52;101614.88;;;17.31;56.24
69455;BME280;56660;51.986;5.930;2022-07-29T03:37:19;101608.47;;;17.24;56.62
69455;BME280;56660;51.986;5.930;2022-07-29T03:39:48;101593.94;;;17.17;57.04
69455;BME280;56660;51.986;5.930;2022-07-29T03:42:23;101606.44;;;17.18;57.22
69455;BME280;56660;51.986;5.930;2022-07-29T03:44:52;101605.94;;;17.14;57.32
69455;BME280;56660;51.986;5.930;2022-07-29T03:47:25;101619.78;;;17.11;57.41
69455;BME280;56660;51.986;5.930;2022-07-29T03:50:01;101599.69;;;17.06;57.53
69455;BME280;56660;51.986;5.930;2022-07-29T03:52:40;101609.81;;;17.03;57.88
69455;BME280;56660;51.986;5.930;2022-07-29T03:55:10;101612.69;;;17.02;57.82
69455;BME280;56660;51.986;5.930;2022-07-29T03:57:45;101618.09;;;17.02;57.84
69455;BME280;56660;51.986;5.930;2022-07-29T04:00:13;101616.41;;;17.01;57.75
69455;BME280;56660;51.986;5.930;2022-07-29T04:02:47;101610.16;;;17.00;58.01
69455;BME280;56660;51.986;5.930;2022-07-29T04:05:57;101612.69;;;17.02;58.49
69455;BME280;56660;51.986;5.930;2022-07-29T04:08:27;101604.59;;;17.02;58.04
69455;BME280;56660;51.986;5.930;2022-07-29T04:10:53;101600.19;;;16.93;57.99
69455;BME280;56660;51.986;5.930;2022-07-29T04:13:19;101594.44;;;16.88;58.14
69455;BME280;56660;51.986;5.930;2022-07-29T04:15:52;101600.03;;;16.86;58.45
69455;BME280;56660;51.986;5.930;2022-07-29T04:18:20;101609.13;;;16.85;58.71
69455;BME280;56660;51.986;5.930;2022-07-29T04:20:47;101612.69;;;16.86;58.54
69455;BME280;56660;51.986;5.930;2022-07-29T04:23:14;101614.03;;;16.82;59.12
69455;BME280;56660;51.986;5.930;2022-07-29T04:25:42;101621.94;;;16.75;58.72
69455;BME280;56660;51.986;5.930;2022-07-29T04:28:11;101633.09;;;16.72;59.07
69455;BME280;56660;51.986;5.930;2022-07-29T04:30:38;101643.56;;;16.75;59.09
69455;BME280;56660;51.986;5.930;2022-07-29T04:33:06;101648.28;;;16.81;59.12
69455;BME280;56660;51.986;5.930;2022-07-29T04:35:51;101648.47;;;16.88;59.41
69455;BME280;56660;51.986;5.930;2022-07-29T04:38:24;101654.38;;;16.91;59.44
69455;BME280;56660;51.986;5.930;2022-07-29T04:40:59;101639.88;;;16.92;59.23
69455;BME280;56660;51.986;5.930;2022-07-29T04:43:28;101637.84;;;16.94;59.17
69455;BME280;56660;51.986;5.930;2022-07-29T04:45:54;101639.88;;;17.00;59.35
69455;BME280;56660;51.986;5.930;2022-07-29T04:48:21;101631.78;;;17.00;59.16
69455;BME280;56660;51.986;5.930;2022-07-29T04:50:55;101632.63;;;17.01;59.19
69455;BME280;56660;51.986;5.930;2022-07-29T04:53:23;101631.09;;;16.98;58.98
69455;BME280;56660;51.986;5.930;2022-07-29T04:55:51;101631.94;;;16.91;59.24
69455;BME280;56660;51.986;5.930;2022-07-29T04:58:27;101628.22;;;16.84;59.45
69455;BME280;56660;51.986;5.930;2022-07-29T05:00:55;101629.72;;;16.78;59.00
69455;BME280;56660;51.986;5.930;2022-07-29T05:03:24;101628.03;;;16.77;59.37
69455;BME280;56660;51.986;5.930;2022-07-29T05:05:57;101636.63;;;16.81;59.42
69455;BME280;56660;51.986;5.930;2022-07-29T05:08:27;101636.13;;;16.85;59.13
69455;BME280;56660;51.986;5.930;2022-07-29T05:11:06;101636.13;;;16.85;59.48
69455;BME280;56660;51.986;5.930;2022-07-29T05:13:43;101641.53;;;16.85;59.23
69455;BME280;56660;51.986;5.930;2022-07-29T05:16:16;101635.13;;;16.86;58.98
69455;BME280;56660;51.986;5.930;2022-07-29T05:18:44;101637.16;;;16.84;59.71
69455;BME280;56660;51.986;5.930;2022-07-29T05:21:09;101640.03;;;16.83;59.19
69455;BME280;56660;51.986;5.930;2022-07-29T05:23:37;101649.13;;;16.82;59.23
69455;BME280;56660;51.986;5.930;2022-07-29T05:26:04;101655.22;;;16.84;59.49
69455;BME280;56660;51.986;5.930;2022-07-29T05:28:34;101681.72;;;16.88;59.45
69455;BME280;56660;51.986;5.930;2022-07-29T05:31:08;101696.44;;;16.94;59.55
69455;BME280;56660;51.986;5.930;2022-07-29T05:33:38;101689.34;;;16.93;59.37
69455;BME280;56660;51.986;5.930;2022-07-29T05:36:09;101677.34;;;16.87;59.20
69455;BME280;56660;51.986;5.930;2022-07-29T05:38:37;101679.72;;;16.90;59.46
69455;BME280;56660;51.986;5.930;2022-07-29T05:41:04;101685.63;;;16.94;59.32
69455;BME280;56660;51.986;5.930;2022-07-29T05:43:30;101680.38;;;16.92;59.45
69455;BME280;56660;51.986;5.930;2022-07-29T05:46:00;101676.34;;;16.96;59.64
69455;BME280;56660;51.986;5.930;2022-07-29T05:48:27;101684.44;;;16.96;59.31
69455;BME280;56660;51.986;5.930;2022-07-29T05:50:54;101679.03;;;16.96;59.59
69455;BME280;56660;51.986;5.930;2022-07-29T05:53:42;101677.03;;;16.98;60.12
69455;BME280;56660;51.986;5.930;2022-07-29T05:56:16;101688.50;;;17.00;59.77
69455;BME280;56660;51.986;5.930;2022-07-29T05:58:58;101693.41;;;17.05;60.00
69455;BME280;56660;51.986;5.930;2022-07-29T06:01:24;101688.84;;;17.06;59.28
69455;BME280;56660;51.986;5.930;2022-07-29T06:03:53;101692.56;;;17.04;59.58
69455;BME280;56660;51.986;5.930;2022-07-29T06:06:20;101677.88;;;17.07;60.08
69455;BME280;56660;51.986;5.930;2022-07-29T06:08:46;101681.75;;;17.13;59.67
69455;BME280;56660;51.986;5.930;2022-07-29T06:11:12;101678.91;;;17.14;59.78
69455;BME280;56660;51.986;5.930;2022-07-29T06:13:38;101673.50;;;17.14;59.28
69455;BME280;56660;51.986;5.930;2022-07-29T06:16:14;101689.19;;;17.19;59.36
69455;BME280;56660;51.986;5.930;2022-07-29T06:19:02;101681.44;;;17.24;59.83
69455;BME280;56660;51.986;5.930;2022-07-29T06:21:27;101675.34;;;17.30;59.30
69455;BME280;56660;51.986;5.930;2022-07-29T06:24:28;101677.03;;;17.39;59.56
69455;BME280;56660;51.986;5.930;2022-07-29T06:26:57;101676.69;;;17.50;58.97
69455;BME280;56660;51.986;5.930;2022-07-29T06:29:24;101672.63;;;17.54;59.20
69455;BME280;56660;51.986;5.930;2022-07-29T06:31:52;101675.69;;;17.59;58.56
69455;BME280;56660;51.986;5.930;2022-07-29T06:34:18;101679.06;;;17.61;58.67
69455;BME280;56660;51.986;5.930;2022-07-29T06:37:07;101673.00;;;17.67;58.97
69455;BME280;56660;51.986;5.930;2022-07-29T06:39:41;101671.13;;;17.76;58.34
69455;BME280;56660;51.986;5.930;2022-07-29T06:42:09;101664.53;;;17.79;58.40
69455;BME280;56660;51.986;5.930;2022-07-29T06:44:57;101671.59;;;17.88;58.09
69455;BME280;56660;51.986;5.930;2022-07-29T06:47:26;101666.53;;;17.93;58.00
69455;BME280;56660;51.986;5.930;2022-07-29T06:49:54;101668.53;;;17.99;58.21
69455;BME280;56660;51.986;5.930;2022-07-29T06:52:27;101665.63;;;18.09;58.08
69455;BME280;56660;51.986;5.930;2022-07-29T06:54:56;101664.59;;;18.18;57.75
69455;BME280;56660;51.986;5.930;2022-07-29T06:57:24;101655.44;;;18.27;57.40
69455;BME280;56660;51.986;5.930;2022-07-29T06:59:53;101665.72;;;18.40;57.58
69455;BME280;56660;51.986;5.930;2022-07-29T07:02:21;101666.16;;;18.51;57.33
69455;BME280;56660;51.986;5.930;2022-07-29T07:04:49;101662.06;;;18.63;57.54
69455;BME280;56660;51.986;5.930;2022-07-29T07:07:19;101671.13;;;18.79;57.22
69455;BME280;56660;51.986;5.930;2022-07-29T07:09:44;101668.53;;;18.85;56.50
69455;BME280;56660;51.986;5.930;2022-07-29T07:12:29;101661.91;;;18.88;56.77
69455;BME280;56660;51.986;5.930;2022-07-29T07:14:57;101663.41;;;18.90;56.67
69455;BME280;56660;51.986;5.930;2022-07-29T07:17:28;101667.28;;;18.96;56.76
69455;BME280;56660;51.986;5.930;2022-07-29T07:20:16;101665.03;;;19.00;56.63
69455;BME280;56660;51.986;5.930;2022-07-29T07:22:43;101674.19;;;18.99;57.06
69455;BME280;56660;51.986;5.930;2022-07-29T07:25:25;101669.63;;;18.99;56.55
69455;BME280;56660;51.986;5.930;2022-07-29T07:27:57;101666.72;;;19.01;56.40
69455;BME280;56660;51.986;5.930;2022-07-29T07:31:05;101668.72;;;19.07;57.02
69455;BME280;56660;51.986;5.930;2022-07-29T07:34:04;101675.34;;;19.04;56.67
69455;BME280;56660;51.986;5.930;2022-07-29T07:37:00;101676.84;;;19.07;57.04
69455;BME280;56660;51.986;5.930;2022-07-29T07:39:42;101676.31;;;19.11;56.87
69455;BME280;56660;51.986;5.930;2022-07-29T07:42:08;101670.72;;;19.13;56.58
69455;BME280;56660;51.986;5.930;2022-07-29T07:44:38;101660.53;;;19.15;56.69
69455;BME280;56660;51.986;5.930;2022-07-29T07:47:05;101661.19;;;19.17;56.44
69455;BME280;56660;51.986;5.930;2022-07-29T07:49:47;101661.84;;;19.19;56.12
69455;BME280;56660;51.986;5.930;2022-07-29T07:52:12;101669.63;;;19.22;56.28
69455;BME280;56660;51.986;5.930;2022-07-29T07:54:58;101670.94;;;19.26;56.88
69455;BME280;56660;51.986;5.930;2022-07-29T07:57:24;101678.91;;;19.27;56.53
69455;BME280;56660;51.986;5.930;2022-07-29T07:59:51;101686.13;;;19.35;56.58
69455;BME280;56660;51.986;5.930;2022-07-29T08:02:45;101675.38;;;19.42;56.69
69455;BME280;56660;51.986;5.930;2022-07-29T08:05:12;101679.59;;;19.44;56.49
69455;BME280;56660;51.986;5.930;2022-07-29T08:07:43;101678.22;;;19.48;56.44
69455;BME280;56660;51.986;5.930;2022-07-29T08:10:11;101679.56;;;19.52;56.00
69455;BME280;56660;51.986;5.930;2022-07-29T08:12:38;101676.84;;;19.52;55.87
69455;BME280;56660;51.986;5.930;2022-07-29T08:15:04;101677.81;;;19.59;56.11
69455;BME280;56660;51.986;5.930;2022-07-29T08:17:30;101682.13;;;19.69;56.10
69455;BME280;56660;51.986;5.930;2022-07-29T08:19:56;101679.34;;;19.77;55.83
69455;BME280;56660;51.986;5.930;2022-07-29T08:22:21;101681.59;;;19.88;56.00
69455;BME280;56660;51.986;5.930;2022-07-29T08:24:47;101674.38;;;19.95;56.11
69455;BME280;56660;51.986;5.930;2022-07-29T08:27:14;101672.78;;;20.01;55.93
69455;BME280;56660;51.986;5.930;2022-07-29T08:29:39;101674.09;;;20.05;55.70
69455;BME280;56660;51.986;5.930;2022-07-29T08:32:08;101676.44;;;20.08;55.77
69455;BME280;56660;51.986;5.930;2022-07-29T08:34:33;101677.56;;;20.13;55.61
69455;BME280;56660;51.986;5.930;2022-07-29T08:36:59;101676.91;;;20.11;55.38
69455;BME280;56660;51.986;5.930;2022-07-29T08:39:25;101663.06;;;20.06;55.35
69455;BME280;56660;51.986;5.930;2022-07-29T08:41:50;101684.59;;;20.08;55.17
69455;BME280;56660;51.986;5.930;2022-07-29T08:44:18;101677.66;;;20.05;55.44
69455;BME280;56660;51.986;5.930;2022-07-29T08:46:45;101692.28;;;20.04;55.46
69455;BME280;56660;51.986;5.930;2022-07-29T08:49:10;101691.06;;;20.07;55.80
69455;BME280;56660;51.986;5.930;2022-07-29T08:51:39;101693.41;;;20.10;55.59
69455;BME280;56660;51.986;5.930;2022-07-29T08:54:06;101689.28;;;20.14;55.68
69455;BME280;56660;51.986;5.930;2022-07-29T08:56:34;101697.69;;;20.19;55.62
69455;BME280;56660;51.986;5.930;2022-07-29T08:59:03;101694.44;;;20.23;55.72
69455;BME280;56660;51.986;5.930;2022-07-29T09:01:32;101700.97;;;20.29;55.55
69455;BME280;56660;51.986;5.930;2022-07-29T09:04:03;101699.75;;;20.32;55.32
69455;BME280;56660;51.986;5.930;2022-07-29T09:06:32;101705.00;;;20.33;55.18
69455;BME280;56660;51.986;5.930;2022-07-29T09:09:02;101699.75;;;20.32;55.58
69455;BME280;56660;51.986;5.930;2022-07-29T09:11:28;101704.81;;;20.35;55.37
69455;BME280;56660;51.986;5.930;2022-07-29T09:13:53;101705.56;;;20.29;55.35
69455;BME280;56660;51.986;5.930;2022-07-29T09:16:19;101716.81;;;20.26;55.73
69455;BME280;56660;51.986;5.930;2022-07-29T09:18:46;101724.38;;;20.30;56.27
69455;BME280;56660;51.986;5.930;2022-07-29T09:21:14;101715.31;;;20.38;55.90
69455;BME280;56660;51.986;5.930;2022-07-29T09:23:59;101718.34;;;20.43;56.61
69455;BME280;56660;51.986;5.930;2022-07-29T09:26:28;101711.22;;;20.42;55.75
69455;BME280;56660;51.986;5.930;2022-07-29T09:28:54;101705.13;;;20.40;55.46
69455;BME280;56660;51.986;5.930;2022-07-29T09:31:31;101709.88;;;20.38;55.81
69455;BME280;56660;51.986;5.930;2022-07-29T09:33:59;101703.97;;;20.34;55.42
69455;BME280;56660;51.986;5.930;2022-07-29T09:36:25;101706.88;;;20.33;55.68
69455;BME280;56660;51.986;5.930;2022-07-29T09:38:57;101702.66;;;20.30;55.55
69455;BME280;56660;51.986;5.930;2022-07-29T09:41:23;101695.16;;;20.32;55.64
69455;BME280;56660;51.986;5.930;2022-07-29T09:43:54;101696.56;;;20.28;55.58
69455;BME280;56660;51.986;5.930;2022-07-29T09:46:20;101707.16;;;20.23;55.66
69455;BME280;56660;51.986;5.930;2022-07-29T09:49:06;101708.84;;;20.24;56.30
69455;BME280;56660;51.986;5.930;2022-07-29T09:51:33;101717.84;;;20.24;55.80
69455;BME280;56660;51.986;5.930;2022-07-29T09:53:58;101723.56;;;20.30;55.90
69455;BME280;56660;51.986;5.930;2022-07-29T09:56:38;101713.63;;;20.37;56.09
69455;BME280;56660;51.986;5.930;2022-07-29T09:59:05;101707.47;;;20.43;55.81
69455;BME280;56660;51.986;5.930;2022-07-29T10:01:31;101714.47;;;20.52;56.01
69455;BME280;56660;51.986;5.930;2022-07-29T10:03:57;101709.22;;;20.65;55.63
69455;BME280;56660;51.986;5.930;2022-07-29T10:06:24;101712.00;;;20.86;55.82
69455;BME280;56660;51.986;5.930;2022-07-29T10:08:49;101711.56;;;21.04;55.60
69455;BME280;56660;51.986;5.930;2022-07-29T10:11:16;101698.41;;;21.23;55.28
69455;BME280;56660;51.986;5.930;2022-07-29T10:13:44;101699.38;;;21.36;54.93
69455;BME280;56660;51.986;5.930;2022-07-29T10:16:13;101693.41;;;21.47;54.90
69455;BME280;56660;51.986;5.930;2022-07-29T10:18:40;101698.63;;;21.70;54.94
69455;BME280;56660;51.986;5.930;2022-07-29T10:21:06;101708.19;;;21.88;54.29
69455;BME280;56660;51.986;5.930;2022-07-29T10:23:34;101700.91;;;21.95;54.46
69455;BME280;56660;51.986;5.930;2022-07-29T10:26:00;101702.25;;;22.05;54.18
69455;BME280;56660;51.986;5.930;2022-07-29T10:28:29;101692.28;;;22.19;54.29
69455;BME280;56660;51.986;5.930;2022-07-29T10:31:00;101691.75;;;22.37;53.78
69455;BME280;56660;51.986;5.930;2022-07-29T10:33:42;101694.31;;;22.52;54.10
69455;BME280;56660;51.986;5.930;2022-07-29T10:36:24;101686.06;;;22.80;53.93
69455;BME280;56660;51.986;5.930;2022-07-29T10:39:07;101694.53;;;23.04;53.04
69455;BME280;56660;51.986;5.930;2022-07-29T10:41:59;101690.38;;;23.28;52.04
69455;BME280;56660;51.986;5.930;2022-07-29T10:44:33;101696.28;;;23.45;51.87
69455;BME280;56660;51.986;5.930;2022-07-29T10:47:00;101688.34;;;23.57;51.92
69455;BME280;56660;51.986;5.930;2022-07-29T10:49:26;101694.22;;;23.67;52.01
69455;BME280;56660;51.986;5.930;2022-07-29T10:51:54;101689.81;;;23.79;52.07
69455;BME280;56660;51.986;5.930;2022-07-29T10:54:44;101691.03;;;23.96;51.10
69455;BME280;56660;51.986;5.930;2022-07-29T10:57:13;101685.34;;;24.04;51.19
69455;BME280;56660;51.986;5.930;2022-07-29T10:59:41;101689.72;;;24.25;51.48
69455;BME280;56660;51.986;5.930;2022-07-29T11:02:40;101684.84;;;24.41;50.24
69455;BME280;56660;51.986;5.930;2022-07-29T11:05:12;101700.03;;;24.30;50.62
69455;BME280;56660;51.986;5.930;2022-07-29T11:10:47;101695.47;;;24.68;50.49
69455;BME280;56660;51.986;5.930;2022-07-29T11:16:18;101691.19;;;24.79;49.61
69455;BME280;56660;51.986;5.930;2022-07-29T11:21:52;101690.69;;;24.95;50.12
69455;BME280;56660;51.986;5.930;2022-07-29T11:24:22;101684.91;;;25.17;49.87
69455;BME280;56660;51.986;5.930;2022-07-29T11:27:09;101684.09;;;25.41;49.10
69455;BME280;56660;51.986;5.930;2022-07-29T11:29:39;101684.75;;;25.61;49.05
69455;BME280;56660;51.986;5.930;2022-07-29T11:32:13;101685.00;;;25.85;48.85
69455;BME280;56660;51.986;5.930;2022-07-29T11:34:40;101680.94;;;26.12;48.81
69455;BME280;56660;51.986;5.930;2022-07-29T11:37:24;101682.56;;;26.38;47.32
69455;BME280;56660;51.986;5.930;2022-07-29T11:40:16;101678.50;;;26.59;47.06
69455;BME280;56660;51.986;5.930;2022-07-29T11:42:47;101671.91;;;26.78;47.74
69455;BME280;56660;51.986;5.930;2022-07-29T11:45:17;101677.34;;;26.97;47.50
69455;BME280;56660;51.986;5.930;2022-07-29T11:47:50;101670.56;;;27.29;47.68
69455;BME280;56660;51.986;5.930;2022-07-29T11:50:26;101669.88;;;27.57;47.28
69455;BME280;56660;51.986;5.930;2022-07-29T11:52:54;101676.38;;;27.74;46.66
69455;BME280;56660;51.986;5.930;2022-07-29T11:55:22;101670.75;;;27.93;46.38
69455;BME280;56660;51.986;5.930;2022-07-29T11:57:50;101668.56;;;28.06;46.06
69455;BME280;56660;51.986;5.930;2022-07-29T12:00:23;101674.19;;;28.23;45.96
69455;BME280;56660;51.986;5.930;2022-07-29T12:02:52;101675.25;;;28.34;45.20
69455;BME280;56660;51.986;5.930;2022-07-29T12:05:18;101674.88;;;28.42;45.05
69455;BME280;56660;51.986;5.930;2022-07-29T12:07:45;101673.16;;;28.53;44.14
69455;BME280;56660;51.986;5.930;2022-07-29T12:10:10;101668.25;;;28.66;43.79
69455;BME280;56660;51.986;5.930;2022-07-29T12:12:38;101674.19;;;29.03;43.24
69455;BME280;56660;51.986;5.930;2022-07-29T12:15:15;101657.19;;;29.40;42.45
69455;BME280;56660;51.986;5.930;2022-07-29T12:17:43;101665.47;;;29.73;43.68
69455;BME280;56660;51.986;5.930;2022-07-29T12:20:09;101659.94;;;30.07;43.30
69455;BME280;56660;51.986;5.930;2022-07-29T12:22:36;101665.25;;;30.35;42.65
69455;BME280;56660;51.986;5.930;2022-07-29T12:25:05;101665.63;;;30.44;40.80
69455;BME280;56660;51.986;5.930;2022-07-29T12:27:33;101660.63;;;30.41;40.95
69455;BME280;56660;51.986;5.930;2022-07-29T12:30:00;101665.25;;;30.57;40.90
69455;BME280;56660;51.986;5.930;2022-07-29T12:32:39;101666.06;;;30.80;41.26
69455;BME280;56660;51.986;5.930;2022-07-29T12:35:07;101654.09;;;30.96;40.58
69455;BME280;56660;51.986;5.930;2022-07-29T12:37:35;101666.53;;;30.98;39.64
69455;BME280;56660;51.986;5.930;2022-07-29T12:40:04;101655.44;;;30.93;38.32
69455;BME280;56660;51.986;5.930;2022-07-29T12:42:31;101662.69;;;30.99;40.20
69455;BME280;56660;51.986;5.930;2022-07-29T12:44:57;101661.59;;;31.00;39.85
69455;BME280;56660;51.986;5.930;2022-07-29T12:47:23;101660.81;;;31.05;39.92
69455;BME280;56660;51.986;5.930;2022-07-29T12:50:08;101660.25;;;31.30;37.29
69455;BME280;56660;51.986;5.930;2022-07-29T12:52:36;101652.09;;;31.45;37.23
69455;BME280;56660;51.986;5.930;2022-07-29T12:55:04;101645.25;;;31.53;38.36
69455;BME280;56660;51.986;5.930;2022-07-29T12:57:30;101645.44;;;31.78;37.68
69455;BME280;56660;51.986;5.930;2022-07-29T13:00:07;101648.09;;;32.10;37.10
69455;BME280;56660;51.986;5.930;2022-07-29T13:02:36;101645.19;;;32.32;38.05
69455;BME280;56660;51.986;5.930;2022-07-29T13:05:05;101643.34;;;32.63;37.83
69455;BME280;56660;51.986;5.930;2022-07-29T13:07:32;101653.59;;;32.73;37.85
69455;BME280;56660;51.986;5.930;2022-07-29T13:10:10;101651.75;;;32.99;35.87
69455;BME280;56660;51.986;5.930;2022-07-29T13:12:39;101642.88;;;33.22;37.12
69455;BME280;56660;51.986;5.930;2022-07-29T13:15:25;101647.88;;;33.50;36.91
69455;BME280;56660;51.986;5.930;2022-07-29T13:17:50;101649.81;;;33.65;37.01
69455;BME280;56660;51.986;5.930;2022-07-29T13:20:17;101648.97;;;33.70;36.30
69455;BME280;56660;51.986;5.930;2022-07-29T13:22:47;101638.44;;;33.72;35.57
69455;BME280;56660;51.986;5.930;2022-07-29T13:25:13;101647.00;;;33.80;35.91
69455;BME280;56660;51.986;5.930;2022-07-29T13:27:39;101645.38;;;33.84;35.20
69455;BME280;56660;51.986;5.930;2022-07-29T13:30:08;101646.47;;;33.99;34.94
69455;BME280;56660;51.986;5.930;2022-07-29T13:32:35;101648.94;;;34.00;34.47
69455;BME280;56660;51.986;5.930;2022-07-29T13:35:04;101651.97;;;34.14;33.47
69455;BME280;56660;51.986;5.930;2022-07-29T13:37:34;101648.06;;;34.15;33.46